createdAt,value
2017-09-28T00:01:27.290Z,16.86
2017-09-28T00:03:55.539Z,17.04
2017-09-28T00:06:23.839Z,19.18
2017-09-28T00:08:52.103Z,17.46
2017-09-28T00:11:20.359Z,17.24
2017-09-28T00:13:48.651Z,18.70
2017-09-28T00:16:16.914Z,16.88
2017-09-28T00:18:46.024Z,17.94
2017-09-28T00:21:15.687Z,16.50
2017-09-28T00:23:44.979Z,17.10
2017-09-28T00:26:13.279Z,17.90
2017-09-28T00:28:41.534Z,17.32
2017-09-28T00:31:09.787Z,18.96
2017-09-28T00:33:38.083Z,16.70
2017-09-28T00:36:06.338Z,17.98
2017-09-28T00:38:34.595Z,19.26
2017-09-28T00:41:02.876Z,19.44
2017-09-28T00:43:31.134Z,19.50
2017-09-28T00:46:00.327Z,18.00
2017-09-28T00:48:28.573Z,19.08
2017-09-28T00:50:56.832Z,19.06
2017-09-28T00:53:25.132Z,19.20
2017-09-28T00:55:53.391Z,19.80
2017-09-28T00:58:23.060Z,19.32
2017-09-28T01:00:52.322Z,19.66
2017-09-28T01:03:20.576Z,19.76
2017-09-28T01:05:48.871Z,18.32
2017-09-28T01:08:17.132Z,19.38
2017-09-28T01:10:46.748Z,19.14
2017-09-28T01:13:16.336Z,20.20
2017-09-28T01:15:44.632Z,18.98
2017-09-28T01:18:12.887Z,21.52
2017-09-28T01:20:41.138Z,20.32
2017-09-28T01:23:09.435Z,17.88
2017-09-28T01:25:37.705Z,21.60
2017-09-28T01:28:05.966Z,19.60
2017-09-28T01:30:34.251Z,20.68
2017-09-28T01:33:02.498Z,22.02
2017-09-28T01:35:30.790Z,20.54
2017-09-28T01:37:59.046Z,20.16
2017-09-28T01:40:27.360Z,20.16
2017-09-28T01:42:55.620Z,22.34
2017-09-28T01:45:23.883Z,21.22
2017-09-28T01:47:52.179Z,21.78
2017-09-28T01:50:20.455Z,23.70
2017-09-28T01:52:48.715Z,20.66
2017-09-28T01:55:17.007Z,20.46
2017-09-28T01:57:46.130Z,22.54
2017-09-28T02:00:15.479Z,22.70
2017-09-28T02:02:42.967Z,23.78
2017-09-28T02:05:11.219Z,23.64
2017-09-28T02:07:39.522Z,23.78
2017-09-28T02:10:07.780Z,22.56
2017-09-28T02:12:36.035Z,22.16
2017-09-28T02:15:04.316Z,22.56
2017-09-28T02:17:32.602Z,24.50
2017-09-28T02:20:00.859Z,22.20
2017-09-28T02:22:29.153Z,24.18
2017-09-28T02:24:57.419Z,23.68
2017-09-28T02:27:25.674Z,23.30
2017-09-28T02:29:53.962Z,24.98
2017-09-28T02:32:21.530Z,24.50
2017-09-28T02:34:49.778Z,24.66
2017-09-28T02:37:18.035Z,25.26
2017-09-28T02:39:46.327Z,23.08
2017-09-28T02:42:14.575Z,23.24
2017-09-28T02:44:42.823Z,27.86
2017-09-28T02:47:11.110Z,24.20
2017-09-28T02:49:43.135Z,23.68
2017-09-28T02:52:11.386Z,24.04
2017-09-28T02:54:39.658Z,24.68
2017-09-28T02:57:07.962Z,23.76
2017-09-28T02:59:36.221Z,24.14
2017-09-28T03:02:04.479Z,23.44
2017-09-28T03:04:32.767Z,26.82
2017-09-28T03:07:01.050Z,23.16
2017-09-28T03:09:29.307Z,24.40
2017-09-28T03:11:57.602Z,25.12
2017-09-28T03:14:25.860Z,24.72
2017-09-28T03:16:54.123Z,25.76
2017-09-28T03:19:23.607Z,25.28
2017-09-28T03:21:52.834Z,22.56
2017-09-28T03:24:21.544Z,25.42
2017-09-28T03:26:49.821Z,26.84
2017-09-28T03:29:18.114Z,25.14
2017-09-28T03:31:46.372Z,25.68
2017-09-28T03:34:14.645Z,22.66
2017-09-28T03:36:42.926Z,25.98
2017-09-28T03:39:11.187Z,24.90
2017-09-28T03:41:39.475Z,24.08
2017-09-28T03:44:07.763Z,25.18
2017-09-28T03:46:36.018Z,24.20
2017-09-28T03:49:04.268Z,26.62
2017-09-28T03:51:32.554Z,23.62
2017-09-28T03:54:00.036Z,23.22
2017-09-28T03:56:28.290Z,24.50
2017-09-28T03:58:56.571Z,23.58
2017-09-28T04:01:24.843Z,24.50
2017-09-28T04:03:53.191Z,23.48
2017-09-28T04:06:22.570Z,25.68
2017-09-28T04:08:51.634Z,23.26
2017-09-28T04:11:19.887Z,24.06
2017-09-28T04:13:48.151Z,24.90
2017-09-28T04:16:16.423Z,25.56
2017-09-28T04:18:44.678Z,22.98
2017-09-28T04:21:12.976Z,26.34
2017-09-28T04:23:41.234Z,25.64
2017-09-28T04:26:09.482Z,24.74
2017-09-28T04:28:37.816Z,23.70
2017-09-28T04:31:06.079Z,25.00
2017-09-28T04:33:34.330Z,25.86
2017-09-28T04:36:02.614Z,23.52
2017-09-28T04:38:30.870Z,27.16
2017-09-28T04:40:59.138Z,25.48
2017-09-28T04:43:27.394Z,24.40
2017-09-28T04:45:55.667Z,25.56
2017-09-28T04:48:23.914Z,24.28
2017-09-28T04:50:52.186Z,25.60
2017-09-28T04:53:20.454Z,25.64
2017-09-28T04:55:48.743Z,26.78
2017-09-28T04:58:16.990Z,25.74
2017-09-28T05:00:46.371Z,22.36
2017-09-28T05:03:14.638Z,27.56
2017-09-28T05:05:42.902Z,25.52
2017-09-28T05:08:11.200Z,24.76
2017-09-28T05:10:39.454Z,23.50
2017-09-28T05:13:07.707Z,23.30
2017-09-28T05:15:35.988Z,24.94
2017-09-28T05:18:04.243Z,27.02
2017-09-28T05:20:32.524Z,26.72
2017-09-28T05:23:00.795Z,24.36
2017-09-28T05:25:29.045Z,23.58
2017-09-28T05:27:57.313Z,24.58
2017-09-28T05:30:25.571Z,25.88
2017-09-28T05:32:53.878Z,25.08
2017-09-28T05:35:22.126Z,23.82
2017-09-28T05:37:50.376Z,22.68
2017-09-28T05:40:18.652Z,24.80
2017-09-28T05:42:46.919Z,24.24
2017-09-28T05:45:16.267Z,24.76
2017-09-28T05:47:45.511Z,26.44
2017-09-28T05:50:13.781Z,24.96
2017-09-28T05:52:42.034Z,24.86
2017-09-28T05:55:10.321Z,24.80
2017-09-28T05:57:38.575Z,24.64
2017-09-28T06:00:06.846Z,25.96
2017-09-28T06:02:35.093Z,24.58
2017-09-28T06:05:03.382Z,24.92
2017-09-28T06:07:31.630Z,24.96
2017-09-28T06:09:59.886Z,22.78
2017-09-28T06:12:30.182Z,26.86
2017-09-28T06:14:58.430Z,27.58
2017-09-28T06:17:26.762Z,26.32
2017-09-28T06:19:55.014Z,24.84
2017-09-28T06:22:23.284Z,24.88
2017-09-28T06:24:51.607Z,24.38
2017-09-28T06:27:19.878Z,25.26
2017-09-28T06:29:48.142Z,24.54
2017-09-28T06:32:29.234Z,25.54
2017-09-28T06:34:57.514Z,24.30
2017-09-28T06:37:38.245Z,26.46
2017-09-28T06:40:06.499Z,23.44
2017-09-28T06:42:34.786Z,24.92
2017-09-28T06:45:03.076Z,24.90
2017-09-28T06:47:31.326Z,23.68
2017-09-28T06:49:59.607Z,23.94
2017-09-28T06:52:27.882Z,24.46
2017-09-28T06:54:56.190Z,24.28
2017-09-28T06:57:24.487Z,23.80
2017-09-28T06:59:53.746Z,25.78
2017-09-28T07:02:22.991Z,25.14
2017-09-28T07:04:50.477Z,23.02
2017-09-28T07:07:21.618Z,25.72
2017-09-28T07:09:49.875Z,26.34
2017-09-28T07:12:18.498Z,25.04
2017-09-28T07:14:46.775Z,29.30
2017-09-28T07:17:16.274Z,29.48
2017-09-28T07:19:44.553Z,30.62
2017-09-28T07:22:12.853Z,29.04
2017-09-28T07:24:41.131Z,28.50
2017-09-28T07:27:09.374Z,29.48
2017-09-28T07:29:37.653Z,29.86
2017-09-28T07:32:08.995Z,29.32
2017-09-28T07:34:37.274Z,28.58
2017-09-28T07:37:05.533Z,28.60
2017-09-28T07:39:33.822Z,30.44
2017-09-28T07:42:03.044Z,28.38
2017-09-28T07:44:31.295Z,32.90
2017-09-28T07:46:59.601Z,30.50
2017-09-28T07:49:27.858Z,31.72
2017-09-28T07:51:56.146Z,34.12
2017-09-28T07:54:24.461Z,29.60
2017-09-28T07:56:53.294Z,32.64
2017-09-28T07:59:22.065Z,32.02
2017-09-28T08:01:50.371Z,32.38
2017-09-28T08:04:22.080Z,31.62
2017-09-28T08:06:50.367Z,31.58
2017-09-28T08:09:18.938Z,34.98
2017-09-28T08:11:47.219Z,34.82
2017-09-28T08:14:29.594Z,34.16
2017-09-28T08:16:57.879Z,31.76
2017-09-28T08:19:27.116Z,33.88
2017-09-28T08:21:55.406Z,34.62
2017-09-28T08:24:23.670Z,32.52
2017-09-28T08:26:52.909Z,35.70
2017-09-28T08:29:21.725Z,34.36
2017-09-28T08:31:49.982Z,33.52
2017-09-28T08:34:19.661Z,34.18
2017-09-28T08:36:47.925Z,35.38
2017-09-28T08:39:23.639Z,36.40
2017-09-28T08:41:52.812Z,35.60
2017-09-28T08:44:28.498Z,33.20
2017-09-28T08:46:56.022Z,33.98
2017-09-28T08:49:24.297Z,36.68
2017-09-28T08:51:53.682Z,38.50
2017-09-28T08:54:24.294Z,36.86
2017-09-28T08:56:53.742Z,39.34
2017-09-28T08:59:22.970Z,37.06
2017-09-28T09:01:51.686Z,38.78
2017-09-28T09:04:26.582Z,34.06
2017-09-28T09:06:54.869Z,38.50
2017-09-28T09:09:23.188Z,38.48
2017-09-28T09:11:52.431Z,38.20
2017-09-28T09:14:21.727Z,40.44
2017-09-28T09:16:50.006Z,39.00
2017-09-28T09:19:19.634Z,42.24
2017-09-28T09:21:47.917Z,44.40
2017-09-28T09:24:17.539Z,39.26
2017-09-28T09:26:45.822Z,38.04
2017-09-28T09:29:15.246Z,43.04
2017-09-28T09:31:47.374Z,41.42
2017-09-28T09:34:16.183Z,39.40
2017-09-28T09:36:46.407Z,41.32
2017-09-28T09:39:15.042Z,41.38
2017-09-28T09:41:43.316Z,39.58
2017-09-28T09:44:10.854Z,42.74
2017-09-28T09:46:41.104Z,41.66
2017-09-28T09:49:09.374Z,37.98
2017-09-28T09:51:37.666Z,40.68
2017-09-28T09:54:05.947Z,43.74
2017-09-28T09:56:34.202Z,41.54
2017-09-28T09:59:02.482Z,39.72
2017-09-28T10:01:36.034Z,39.78
2017-09-28T10:04:04.290Z,35.06
2017-09-28T10:06:42.258Z,41.26
2017-09-28T10:09:28.982Z,39.52
2017-09-28T10:12:04.423Z,38.46
2017-09-28T10:14:47.529Z,35.68
2017-09-28T10:17:16.180Z,37.46
2017-09-28T10:19:45.262Z,35.70
2017-09-28T10:22:14.275Z,36.58
2017-09-28T10:24:42.535Z,35.32
2017-09-28T10:27:10.803Z,38.24
2017-09-28T10:29:39.066Z,34.24
2017-09-28T10:32:07.330Z,34.20
2017-09-28T10:34:35.591Z,33.24
2017-09-28T10:37:03.871Z,29.06
2017-09-28T10:39:32.150Z,29.60
2017-09-28T10:42:01.334Z,27.74
2017-09-28T10:44:29.597Z,27.18
2017-09-28T10:46:57.850Z,28.74
2017-09-28T10:49:26.130Z,25.32
2017-09-28T10:51:54.406Z,26.34
2017-09-28T10:54:23.793Z,27.02
2017-09-28T10:56:53.105Z,25.82
2017-09-28T10:59:21.887Z,26.48
2017-09-28T11:01:50.134Z,26.60
2017-09-28T11:04:18.426Z,26.18
2017-09-28T11:06:46.673Z,23.94
2017-09-28T11:09:15.836Z,24.24
2017-09-28T11:11:45.114Z,27.26
2017-09-28T11:14:13.383Z,25.00
2017-09-28T11:16:41.638Z,24.78
2017-09-28T11:19:09.919Z,23.90
2017-09-28T11:21:38.190Z,24.82
2017-09-28T11:24:06.442Z,27.02
2017-09-28T11:26:34.730Z,25.92
2017-09-28T11:29:02.978Z,23.72
2017-09-28T11:31:31.238Z,24.60
2017-09-28T11:33:59.543Z,23.28
2017-09-28T11:36:27.795Z,23.16
2017-09-28T11:38:56.111Z,24.48
2017-09-28T11:41:24.341Z,22.62
2017-09-28T11:43:53.730Z,26.22
2017-09-28T11:46:22.831Z,30.58
2017-09-28T11:48:51.728Z,31.66
2017-09-28T11:51:19.993Z,32.16
2017-09-28T11:53:48.255Z,34.18
2017-09-28T11:56:16.522Z,32.16
2017-09-28T11:58:44.770Z,34.52
2017-09-28T12:01:13.055Z,33.36
2017-09-28T12:03:41.311Z,29.40
2017-09-28T12:06:09.580Z,28.92
2017-09-28T12:08:37.863Z,30.02
2017-09-28T12:11:06.119Z,28.04
2017-09-28T12:13:35.407Z,26.68
2017-09-28T12:16:03.684Z,27.82
2017-09-28T12:18:31.943Z,26.10
2017-09-28T12:21:00.218Z,24.52
2017-09-28T12:23:28.475Z,25.34
2017-09-28T12:25:56.750Z,23.98
2017-09-28T12:28:25.002Z,21.16
2017-09-28T12:30:53.278Z,22.66
2017-09-28T12:33:22.653Z,23.78
2017-09-28T12:35:50.938Z,23.24
2017-09-28T12:38:19.191Z,19.80
2017-09-28T12:40:47.458Z,18.78
2017-09-28T12:43:21.793Z,20.84
2017-09-28T12:45:50.083Z,16.92
2017-09-28T12:48:17.575Z,18.64
2017-09-28T12:50:45.831Z,17.84
2017-09-28T12:53:15.151Z,17.04
2017-09-28T12:55:43.389Z,17.58
2017-09-28T12:58:11.674Z,17.38
2017-09-28T13:00:39.923Z,15.20
2017-09-28T13:03:08.216Z,17.08
2017-09-28T13:05:36.475Z,17.06
2017-09-28T13:08:04.731Z,19.08
2017-09-28T13:10:32.996Z,17.98
2017-09-28T13:13:01.247Z,15.98
2017-09-28T13:15:28.777Z,17.42
2017-09-28T13:17:57.041Z,15.80
2017-09-28T13:20:25.294Z,15.02
2017-09-28T13:22:53.565Z,16.10
2017-09-28T13:25:23.240Z,16.78
2017-09-28T13:27:52.574Z,15.64
2017-09-28T13:30:20.821Z,15.96
2017-09-28T13:32:49.070Z,15.50
2017-09-28T13:35:17.342Z,14.94
2017-09-28T13:37:51.752Z,14.42
2017-09-28T13:40:20.022Z,14.26
2017-09-28T13:42:48.290Z,13.36
2017-09-28T13:45:16.540Z,14.26
2017-09-28T13:47:44.809Z,14.10
2017-09-28T13:50:13.066Z,13.10
2017-09-28T13:52:41.361Z,12.74
2017-09-28T13:55:08.844Z,12.44
2017-09-28T13:57:37.103Z,12.86
2017-09-28T14:00:05.371Z,12.72
2017-09-28T14:02:33.621Z,11.56
2017-09-28T14:05:01.883Z,14.30
2017-09-28T14:07:30.154Z,11.64
2017-09-28T14:09:58.402Z,12.14
2017-09-28T14:12:26.689Z,12.08
2017-09-28T14:14:54.942Z,11.90
2017-09-28T14:17:24.214Z,13.62
2017-09-28T14:19:53.186Z,12.28
2017-09-28T14:22:24.775Z,11.02
2017-09-28T14:24:54.323Z,13.92
2017-09-28T14:27:23.792Z,11.80
2017-09-28T14:29:52.900Z,12.18
2017-09-28T14:32:23.055Z,10.50
2017-09-28T14:34:51.845Z,11.26
2017-09-28T14:37:20.115Z,12.58
2017-09-28T14:39:48.373Z,13.38
2017-09-28T14:42:16.656Z,11.86
2017-09-28T14:44:45.998Z,10.56
2017-09-28T14:47:15.874Z,11.12
2017-09-28T14:49:45.349Z,10.64
2017-09-28T14:52:13.643Z,11.32
2017-09-28T14:54:41.894Z,11.30
2017-09-28T14:57:10.170Z,12.48
2017-09-28T14:59:38.422Z,12.94
2017-09-28T15:02:06.690Z,11.90
2017-09-28T15:04:34.937Z,12.42
2017-09-28T15:07:02.450Z,13.12
2017-09-28T15:09:30.715Z,11.08
2017-09-28T15:11:59.003Z,12.42
2017-09-28T15:14:27.271Z,12.10
2017-09-28T15:16:55.518Z,11.78
2017-09-28T15:19:23.815Z,12.10
2017-09-28T15:21:52.913Z,11.56
2017-09-28T15:24:21.747Z,14.02
2017-09-28T15:26:49.251Z,11.72
2017-09-28T15:29:17.498Z,11.02
2017-09-28T15:31:45.763Z,10.44
2017-09-28T15:34:15.186Z,12.86
2017-09-28T15:36:44.261Z,12.34
2017-09-28T15:39:12.515Z,11.36
2017-09-28T15:41:40.799Z,11.94
2017-09-28T15:44:09.084Z,11.70
2017-09-28T15:46:37.342Z,11.00
2017-09-28T15:49:05.642Z,12.26
2017-09-28T15:51:33.906Z,11.30
2017-09-28T15:54:02.195Z,10.38
2017-09-28T15:56:30.446Z,11.28
2017-09-28T15:58:58.702Z,11.24
2017-09-28T16:01:26.969Z,12.44
2017-09-28T16:03:55.222Z,10.34
2017-09-28T16:06:23.495Z,10.26
2017-09-28T16:08:51.799Z,10.40
2017-09-28T16:11:20.062Z,11.28
2017-09-28T16:13:48.306Z,9.74
2017-09-28T16:16:16.922Z,9.88
2017-09-28T16:18:46.180Z,10.92
2017-09-28T16:21:15.454Z,9.50
2017-09-28T16:23:43.724Z,10.60
2017-09-28T16:26:11.980Z,8.30
2017-09-28T16:28:40.270Z,9.38
2017-09-28T16:31:08.526Z,9.28
2017-09-28T16:33:36.799Z,9.44
2017-09-28T16:36:05.075Z,10.12
2017-09-28T16:38:33.314Z,8.74
2017-09-28T16:41:01.597Z,10.10
2017-09-28T16:43:29.850Z,9.88
2017-09-28T16:45:58.119Z,9.62
2017-09-28T16:48:26.374Z,8.72
2017-09-28T16:50:54.646Z,9.52
2017-09-28T16:53:23.970Z,9.26
2017-09-28T16:55:51.902Z,10.16
2017-09-28T16:58:20.154Z,8.90
2017-09-28T17:00:48.454Z,8.84
2017-09-28T17:03:16.051Z,10.46
2017-09-28T17:05:45.555Z,9.44
2017-09-28T17:08:14.102Z,9.26
2017-09-28T17:10:42.362Z,9.48
2017-09-28T17:13:10.642Z,8.72
2017-09-28T17:15:38.894Z,9.14
2017-09-28T17:18:07.175Z,8.90
2017-09-28T17:20:35.422Z,9.08
2017-09-28T17:23:03.702Z,9.64
2017-09-28T17:25:31.187Z,10.40
2017-09-28T17:27:59.462Z,9.98
2017-09-28T17:30:27.746Z,11.00
2017-09-28T17:32:55.999Z,12.06
2017-09-28T17:35:24.582Z,17.02
2017-09-28T17:37:53.637Z,13.26
2017-09-28T17:40:22.914Z,12.98
2017-09-28T17:42:51.885Z,13.04
2017-09-28T17:45:20.173Z,12.42
2017-09-28T17:47:48.450Z,14.20
2017-09-28T17:50:16.814Z,12.20
2017-09-28T17:52:45.767Z,11.44
2017-09-28T17:55:15.902Z,13.00
2017-09-28T17:57:44.516Z,10.72
2017-09-28T18:00:12.831Z,10.62
2017-09-28T18:02:41.092Z,10.38
2017-09-28T18:05:09.347Z,10.68
2017-09-28T18:07:37.632Z,11.16
2017-09-28T18:10:05.923Z,10.82
2017-09-28T18:12:34.202Z,11.38
2017-09-28T18:15:02.458Z,11.66
2017-09-28T18:17:29.982Z,13.00
2017-09-28T18:19:58.230Z,11.80
2017-09-28T18:22:26.511Z,13.14
2017-09-28T18:24:54.808Z,12.70
2017-09-28T18:27:24.070Z,12.32
2017-09-28T18:29:52.787Z,11.68
2017-09-28T18:32:21.047Z,12.36
2017-09-28T18:34:49.306Z,12.78
2017-09-28T18:37:17.587Z,10.92
2017-09-28T18:39:45.842Z,13.02
2017-09-28T18:42:15.015Z,10.62
2017-09-28T18:44:42.506Z,10.52
2017-09-28T18:47:10.854Z,9.50
2017-09-28T18:49:39.122Z,10.34
2017-09-28T18:55:01.343Z,8.78
2017-09-28T18:57:29.594Z,9.34
2017-09-28T18:59:58.811Z,9.84
2017-09-28T19:02:27.450Z,10.18
2017-09-28T19:04:55.730Z,8.42
2017-09-28T19:07:24.012Z,9.70
2017-09-28T19:09:52.262Z,9.70
2017-09-28T19:12:23.599Z,10.32
2017-09-28T19:14:51.943Z,8.62
2017-09-28T19:17:20.227Z,8.30
2017-09-28T19:19:48.485Z,8.56
2017-09-28T19:22:16.810Z,8.86
2017-09-28T19:24:45.112Z,8.14
2017-09-28T19:27:13.385Z,7.78
2017-09-28T19:29:41.663Z,7.56
2017-09-28T19:32:09.910Z,6.98
2017-09-28T19:34:38.186Z,6.98
2017-09-28T19:37:06.438Z,6.64
2017-09-28T19:39:34.760Z,6.52
2017-09-28T19:42:03.081Z,7.52
2017-09-28T19:44:31.326Z,6.58
2017-09-28T19:46:59.611Z,7.40
2017-09-28T19:49:28.683Z,7.28
2017-09-28T19:51:57.720Z,7.18
2017-09-28T19:54:26.669Z,7.64
2017-09-28T19:56:55.001Z,7.38
2017-09-28T19:59:23.934Z,6.66
2017-09-28T20:01:52.998Z,6.14
2017-09-28T20:04:22.051Z,6.40
2017-09-28T20:06:50.391Z,6.72
2017-09-28T20:09:18.637Z,7.12
2017-09-28T20:11:46.903Z,7.14
2017-09-28T20:14:15.154Z,7.12
2017-09-28T20:16:43.462Z,6.22
2017-09-28T20:19:11.714Z,6.70
2017-09-28T20:21:40.022Z,6.26
2017-09-28T20:24:08.268Z,6.60
2017-09-28T20:26:36.514Z,6.08
2017-09-28T20:29:04.862Z,5.86
2017-09-28T20:31:33.119Z,6.36
2017-09-28T20:34:01.499Z,6.78
2017-09-28T20:36:29.762Z,6.62
2017-09-28T20:38:59.753Z,6.64
2017-09-28T20:41:29.056Z,7.18
2017-09-28T20:43:57.899Z,7.00
2017-09-28T20:46:26.884Z,7.12
2017-09-28T20:48:55.230Z,7.40
2017-09-28T20:51:23.816Z,6.18
2017-09-28T20:53:53.023Z,7.14
2017-09-28T20:56:21.985Z,7.60
2017-09-28T20:58:50.270Z,7.70
2017-09-28T21:01:18.578Z,7.26
2017-09-28T21:03:46.851Z,6.46
2017-09-28T21:06:15.171Z,6.22
2017-09-28T21:08:43.450Z,7.64
2017-09-28T21:11:11.722Z,7.24
2017-09-28T21:13:39.974Z,7.58
2017-09-28T21:16:10.307Z,8.70
2017-09-28T21:18:38.550Z,8.52
2017-09-28T21:21:06.883Z,9.56
2017-09-28T21:23:35.138Z,11.96
2017-09-28T21:26:03.447Z,13.38
2017-09-28T21:28:30.942Z,14.58
2017-09-28T21:31:05.786Z,16.70
2017-09-28T21:33:34.050Z,16.58
2017-09-28T21:36:02.347Z,14.46
2017-09-28T21:38:30.619Z,16.46
2017-09-28T21:41:04.890Z,15.02
2017-09-28T21:43:33.163Z,13.90
2017-09-28T21:46:11.018Z,14.52
2017-09-28T21:48:39.306Z,11.36
2017-09-28T21:51:07.667Z,10.82
2017-09-28T21:53:35.923Z,10.10
2017-09-28T21:56:04.283Z,9.62
2017-09-28T21:58:32.548Z,10.00
2017-09-28T22:01:00.930Z,9.36
2017-09-28T22:03:28.421Z,9.84
2017-09-28T22:05:57.611Z,9.62
2017-09-28T22:08:25.935Z,9.72
2017-09-28T22:10:54.182Z,9.92
2017-09-28T22:13:22.431Z,12.18
2017-09-28T22:15:50.718Z,9.50
2017-09-28T22:18:19.000Z,10.04
2017-09-28T22:20:47.317Z,10.28
2017-09-28T22:23:15.582Z,10.86
2017-09-28T22:25:43.919Z,9.48
2017-09-28T22:28:12.211Z,10.00
2017-09-28T22:30:40.467Z,9.62
2017-09-28T22:33:08.747Z,9.38
2017-09-28T22:35:38.031Z,10.06
2017-09-28T22:38:06.322Z,10.52
2017-09-28T22:40:34.576Z,9.18
2017-09-28T22:43:02.878Z,9.34
2017-09-28T22:45:31.214Z,9.16
2017-09-28T22:47:59.466Z,10.16
2017-09-28T22:50:28.343Z,8.72
2017-09-28T22:52:57.723Z,8.52
2017-09-28T22:55:27.714Z,9.94
2017-09-28T22:57:56.646Z,10.02
2017-09-28T23:00:24.994Z,9.10
2017-09-28T23:02:54.530Z,9.70
2017-09-28T23:05:24.063Z,10.62
2017-09-28T23:07:53.150Z,8.70
2017-09-28T23:10:21.928Z,9.90
2017-09-28T23:12:50.202Z,8.94
2017-09-28T23:15:18.478Z,9.90
2017-09-28T23:17:46.753Z,9.62
2017-09-28T23:20:15.054Z,9.80
2017-09-28T23:22:43.335Z,10.54
2017-09-28T23:25:11.658Z,9.78
2017-09-28T23:27:39.988Z,10.08
2017-09-28T23:30:08.270Z,8.84
2017-09-28T23:32:36.574Z,9.86
2017-09-28T23:35:04.870Z,10.32
2017-09-28T23:37:33.118Z,9.40
2017-09-28T23:40:04.795Z,9.32
2017-09-28T23:42:33.054Z,9.42
2017-09-28T23:45:01.343Z,10.44
2017-09-28T23:47:29.603Z,8.54
2017-09-28T23:49:58.174Z,9.26
2017-09-28T23:52:27.448Z,8.84
2017-09-28T23:54:55.804Z,9.68
2017-09-28T23:57:24.071Z,10.12
2017-09-28T23:59:56.906Z,10.22
